Time;durP1;ratioP1;P1;durP2;ratioP2;P2;SDS_P1;SDS_P2;PMS_P1;PMS_P2;Temp;Humidity;BMP_temperature;BMP_pressure;BME280_temperature;BME280_humidity;BME280_pressure;Samples;Min_cycle;Max_cycle;Signal;HPM_P1;HPM_P2
2021/04/16 00:00:45;;;;;;;7.32;4.63;;;;;;;;;;5034669;28;20110;-71
2021/04/16 00:03:12;;;;;;;5.88;4.85;;;;;;;;;;5034790;28;20080;-71
2021/04/16 00:05:40;;;;;;;9.30;5.00;;;;;;;;;;5034041;28;20508;-71
2021/04/16 00:08:17;;;;;;;6.10;4.60;;;;;;;;;;5034967;28;20052;-71
2021/04/16 00:10:46;;;;;;;8.50;5.20;;;;;;;;;;5034696;28;20041;-72
2021/04/16 00:13:14;;;;;;;7.13;4.57;;;;;;;;;;5034600;28;20099;-71
2021/04/16 00:15:40;;;;;;;8.57;5.05;;;;;;;;;;5033840;28;20053;-70
2021/04/16 00:18:08;;;;;;;9.75;5.00;;;;;;;;;;5033556;28;20141;-71
2021/04/16 00:20:35;;;;;;;6.18;4.95;;;;;;;;;;5034423;28;20103;-71
2021/04/16 00:23:02;;;;;;;7.45;4.68;;;;;;;;;;5033256;28;20054;-70
2021/04/16 00:25:29;;;;;;;7.75;4.53;;;;;;;;;;5033549;28;20455;-71
2021/04/16 00:27:55;;;;;;;8.82;5.57;;;;;;;;;;5034281;28;20507;-70
2021/04/16 00:30:32;;;;;;;6.68;5.20;;;;;;;;;;5034023;28;20504;-70
2021/04/16 00:32:58;;;;;;;7.30;4.63;;;;;;;;;;5016736;28;20397;-70
2021/04/16 00:35:24;;;;;;;8.73;4.80;;;;;;;;;;5033347;28;20068;-71
2021/04/16 00:37:51;;;;;;;8.02;5.75;;;;;;;;;;5034137;28;20045;-70
2021/04/16 00:40:23;;;;;;;7.93;5.20;;;;;;;;;;5034178;28;20045;-70
2021/04/16 00:42:57;;;;;;;8.27;5.93;;;;;;;;;;5033538;28;20087;-71
2021/04/16 00:45:24;;;;;;;9.40;5.68;;;;;;;;;;5033086;28;20512;-70
2021/04/16 00:47:51;;;;;;;8.07;5.43;;;;;;;;;;5032800;28;20424;-71
2021/04/16 00:50:21;;;;;;;6.15;5.22;;;;;;;;;;5032465;28;20057;-70
2021/04/16 00:52:47;;;;;;;8.98;5.25;;;;;;;;;;5032799;28;20089;-70
2021/04/16 00:55:13;;;;;;;7.55;5.20;;;;;;;;;;5033327;28;20127;-71
2021/04/16 00:57:39;;;;;;;9.98;5.03;;;;;;;;;;5032295;28;20050;-70
2021/04/16 01:00:07;;;;;;;10.10;5.50;;;;;;;;;;5033739;28;20057;-70
2021/04/16 01:02:33;;;;;;;8.80;5.43;;;;;;;;;;5013806;28;20539;-70
2021/04/16 01:05:00;;;;;;;9.90;5.93;;;;;;;;;;5013679;28;20053;-71
2021/04/16 01:07:26;;;;;;;6.57;4.75;;;;;;;;;;5013244;28;20085;-70
2021/04/16 01:09:53;;;;;;;7.20;5.28;;;;;;;;;;5012499;28;20551;-71
2021/04/16 01:12:19;;;;;;;7.78;4.90;;;;;;;;;;5013903;28;20088;-71
2021/04/16 01:14:48;;;;;;;8.77;5.70;;;;;;;;;;5015820;28;20080;-71
2021/04/16 01:17:15;;;;;;;7.47;4.72;;;;;;;;;;5031631;28;20113;-70
2021/04/16 01:19:47;;;;;;;8.18;5.28;;;;;;;;;;5033540;28;20053;-72
2021/04/16 01:22:28;;;;;;;10.13;5.77;;;;;;;;;;5033293;28;20046;-71
2021/04/16 01:24:58;;;;;;;8.57;5.07;;;;;;;;;;5016904;28;20331;-71
2021/04/16 01:27:26;;;;;;;7.15;5.10;;;;;;;;;;5014928;28;20057;-70
2021/04/16 01:29:52;;;;;;;8.30;4.85;;;;;;;;;;5033234;28;20099;-71
2021/04/16 01:32:27;;;;;;;7.45;5.18;;;;;;;;;;5033008;28;20470;-71
2021/04/16 01:34:53;;;;;;;6.57;4.75;;;;;;;;;;5033261;28;20132;-71
2021/04/16 01:37:19;;;;;;;7.40;5.07;;;;;;;;;;5032325;28;20103;-70
2021/04/16 01:39:45;;;;;;;7.07;4.88;;;;;;;;;;5032976;28;20080;-71
2021/04/16 01:42:12;;;;;;;6.68;4.65;;;;;;;;;;5033048;28;20594;-71
2021/04/16 01:44:42;;;;;;;6.28;4.20;;;;;;;;;;5032920;28;20053;-71
2021/04/16 01:47:09;;;;;;;8.15;4.22;;;;;;;;;;5032434;28;20073;-71
2021/04/16 01:49:45;;;;;;;8.70;4.80;;;;;;;;;;5031671;28;20053;-72
2021/04/16 01:52:14;;;;;;;6.57;4.80;;;;;;;;;;5028356;28;20046;-71
2021/04/16 01:54:43;;;;;;;6.60;5.72;;;;;;;;;;5031901;28;20053;-72
2021/04/16 01:57:16;;;;;;;8.85;4.95;;;;;;;;;;5027877;28;20069;-72
2021/04/16 01:59:44;;;;;;;7.70;5.25;;;;;;;;;;5032717;28;20566;-72
2021/04/16 02:02:14;;;;;;;6.97;5.00;;;;;;;;;;5032173;28;20050;-72
2021/04/16 02:04:40;;;;;;;8.35;5.40;;;;;;;;;;5033144;28;20056;-72
2021/04/16 02:07:07;;;;;;;8.60;5.55;;;;;;;;;;5032075;28;20049;-72
2021/04/16 02:09:35;;;;;;;8.45;5.45;;;;;;;;;;5032632;28;20471;-72
2021/04/16 02:12:02;;;;;;;5.07;4.50;;;;;;;;;;5032465;28;20046;-72
2021/04/16 02:14:29;;;;;;;8.73;4.90;;;;;;;;;;5032274;28;20096;-72
2021/04/16 02:17:08;;;;;;;7.90;4.60;;;;;;;;;;5031874;28;20053;-72
2021/04/16 02:19:35;;;;;;;9.25;4.93;;;;;;;;;;5032249;28;20054;-72
2021/04/16 02:22:06;;;;;;;8.05;4.78;;;;;;;;;;5032292;28;20558;-72
2021/04/16 02:24:32;;;;;;;6.78;4.40;;;;;;;;;;5032289;28;20444;-72
2021/04/16 02:26:59;;;;;;;6.55;4.35;;;;;;;;;;5031667;28;20046;-72
2021/04/16 02:29:25;;;;;;;7.82;5.00;;;;;;;;;;5032219;28;20080;-72
2021/04/16 02:31:51;;;;;;;6.18;4.30;;;;;;;;;;5032122;28;20045;-72
2021/04/16 02:34:21;;;;;;;5.72;4.10;;;;;;;;;;5031986;28;20053;-72
2021/04/16 02:36:48;;;;;;;6.40;5.30;;;;;;;;;;5031529;28;20123;-72
2021/04/16 02:39:15;;;;;;;8.55;6.10;;;;;;;;;;5030708;28;20080;-72
2021/04/16 02:41:41;;;;;;;9.02;5.45;;;;;;;;;;5031996;28;20046;-72
2021/04/16 02:44:07;;;;;;;6.68;5.13;;;;;;;;;;5030956;28;20099;-72
2021/04/16 02:46:34;;;;;;;9.32;5.90;;;;;;;;;;5029972;28;20130;-72
2021/04/16 02:49:00;;;;;;;9.70;5.45;;;;;;;;;;5032017;28;20198;-72
2021/04/16 02:51:27;;;;;;;7.25;5.57;;;;;;;;;;5031832;28;20127;-72
2021/04/16 02:53:53;;;;;;;7.72;5.53;;;;;;;;;;5032021;28;20111;-72
2021/04/16 02:56:19;;;;;;;8.82;5.10;;;;;;;;;;5030822;28;20500;-72
2021/04/16 02:58:46;;;;;;;8.48;4.85;;;;;;;;;;5031662;28;20050;-72
2021/04/16 03:01:12;;;;;;;7.65;5.72;;;;;;;;;;5031709;28;20519;-72
2021/04/16 03:03:38;;;;;;;7.97;5.20;;;;;;;;;;5030508;28;20055;-72
2021/04/16 03:06:05;;;;;;;13.13;5.82;;;;;;;;;;5030733;28;20536;-72
2021/04/16 03:08:31;;;;;;;7.82;5.45;;;;;;;;;;5031265;28;20050;-72
2021/04/16 03:10:57;;;;;;;7.07;5.45;;;;;;;;;;5031670;28;20107;-72
2021/04/16 03:13:23;;;;;;;9.88;5.50;;;;;;;;;;5031512;28;20084;-72
2021/04/16 03:15:50;;;;;;;7.00;5.43;;;;;;;;;;5013357;28;20470;-72
2021/04/16 03:18:16;;;;;;;8.55;7.25;;;;;;;;;;5031642;28;20100;-72
2021/04/16 03:20:43;;;;;;;7.05;5.32;;;;;;;;;;5031680;28;20091;-72
2021/04/16 03:23:10;;;;;;;9.05;5.60;;;;;;;;;;5031526;28;20104;-72
2021/04/16 03:25:36;;;;;;;7.20;5.78;;;;;;;;;;5030749;28;20054;-72
2021/04/16 03:28:03;;;;;;;8.30;6.00;;;;;;;;;;5031684;28;20049;-72
2021/04/16 03:30:29;;;;;;;10.38;6.50;;;;;;;;;;5031419;28;20385;-72
2021/04/16 03:32:55;;;;;;;12.57;6.60;;;;;;;;;;5031488;28;20751;-72
2021/04/16 03:35:22;;;;;;;9.55;6.38;;;;;;;;;;5030619;28;20057;-72
2021/04/16 03:37:49;;;;;;;8.65;5.47;;;;;;;;;;5031419;28;20092;-72
2021/04/16 03:40:18;;;;;;;7.00;5.75;;;;;;;;;;5031294;28;20491;-71
2021/04/16 03:42:44;;;;;;;7.95;6.35;;;;;;;;;;5031469;28;20480;-72
2021/04/16 03:45:13;;;;;;;8.45;6.22;;;;;;;;;;5030995;28;20053;-72
2021/04/16 03:47:41;;;;;;;7.38;5.15;;;;;;;;;;5031155;28;20053;-72
2021/04/16 03:50:15;;;;;;;8.13;5.35;;;;;;;;;;5031257;28;20435;-72
2021/04/16 03:52:42;;;;;;;10.55;7.05;;;;;;;;;;5031332;28;20538;-72
2021/04/16 03:55:08;;;;;;;14.82;6.30;;;;;;;;;;5030827;28;20046;-72
2021/04/16 03:57:34;;;;;;;10.77;7.30;;;;;;;;;;5030622;28;20126;-72
2021/04/16 04:00:03;;;;;;;13.05;7.70;;;;;;;;;;5031320;28;20123;-71
2021/04/16 04:02:29;;;;;;;11.20;7.15;;;;;;;;;;5031009;28;20072;-71
2021/04/16 04:04:55;;;;;;;11.90;7.50;;;;;;;;;;5031138;28;20132;-72
2021/04/16 04:07:21;;;;;;;10.30;6.68;;;;;;;;;;5030224;28;20107;-72
2021/04/16 04:09:47;;;;;;;11.02;6.75;;;;;;;;;;5031213;28;20049;-72
2021/04/16 04:12:13;;;;;;;10.65;6.13;;;;;;;;;;5030914;28;20088;-71
2021/04/16 04:14:39;;;;;;;10.77;6.88;;;;;;;;;;5031088;28;20049;-71
2021/04/16 04:17:06;;;;;;;10.35;6.20;;;;;;;;;;5030278;28;20054;-71
2021/04/16 04:19:34;;;;;;;8.75;6.18;;;;;;;;;;5034430;28;20685;-71
2021/04/16 04:22:01;;;;;;;10.00;6.18;;;;;;;;;;5034600;28;20111;-72
2021/04/16 04:24:27;;;;;;;8.10;5.65;;;;;;;;;;5034289;28;20115;-72
2021/04/16 04:26:53;;;;;;;8.48;5.97;;;;;;;;;;5031476;28;20053;-71
2021/04/16 04:29:22;;;;;;;10.55;6.43;;;;;;;;;;5050935;28;20053;-71
2021/04/16 04:31:49;;;;;;;10.80;6.40;;;;;;;;;;5053210;28;20095;-72
2021/04/16 04:34:17;;;;;;;9.75;6.28;;;;;;;;;;5052978;28;20491;-71
2021/04/16 04:36:43;;;;;;;11.95;6.78;;;;;;;;;;5052938;28;20079;-72
2021/04/16 04:39:12;;;;;;;11.57;6.20;;;;;;;;;;5053329;28;20052;-73
2021/04/16 04:41:39;;;;;;;9.35;6.30;;;;;;;;;;5052392;28;20048;-72
2021/04/16 04:44:06;;;;;;;10.43;6.18;;;;;;;;;;5052199;28;20095;-73
2021/04/16 04:46:33;;;;;;;11.40;5.93;;;;;;;;;;5052383;28;20057;-72
2021/04/16 04:48:59;;;;;;;9.00;5.55;;;;;;;;;;5053411;28;20049;-73
2021/04/16 04:51:25;;;;;;;8.07;6.20;;;;;;;;;;5035152;28;20049;-73
2021/04/16 04:53:51;;;;;;;11.57;7.07;;;;;;;;;;5033066;28;20053;-72
2021/04/16 04:56:17;;;;;;;10.57;6.43;;;;;;;;;;5032601;28;20057;-72
2021/04/16 04:58:44;;;;;;;7.80;5.82;;;;;;;;;;5033076;28;20050;-72
2021/04/16 05:01:10;;;;;;;8.82;6.65;;;;;;;;;;5033130;28;20631;-72
2021/04/16 05:03:37;;;;;;;11.10;6.88;;;;;;;;;;5015302;28;20051;-72
2021/04/16 05:06:04;;;;;;;11.55;5.97;;;;;;;;;;5032416;28;20045;-73
2021/04/16 05:08:30;;;;;;;12.18;6.70;;;;;;;;;;5033067;28;20107;-72
2021/04/16 05:10:56;;;;;;;8.70;6.25;;;;;;;;;;5033257;28;20077;-72
2021/04/16 05:13:22;;;;;;;13.13;7.30;;;;;;;;;;5031469;28;20096;-72
2021/04/16 05:15:48;;;;;;;11.27;6.50;;;;;;;;;;5034750;28;20046;-72
2021/04/16 05:18:15;;;;;;;11.10;6.13;;;;;;;;;;5042795;28;20050;-72
2021/04/16 05:20:41;;;;;;;8.90;6.32;;;;;;;;;;5044281;28;20523;-73
2021/04/16 05:23:07;;;;;;;11.60;6.18;;;;;;;;;;5011496;28;20474;-72
2021/04/16 05:25:33;;;;;;;10.00;6.68;;;;;;;;;;5032455;28;20099;-72
2021/04/16 05:27:59;;;;;;;8.98;6.05;;;;;;;;;;5032336;28;20076;-72
2021/04/16 05:30:26;;;;;;;10.10;5.82;;;;;;;;;;5032107;28;20465;-72
2021/04/16 05:32:52;;;;;;;7.85;5.90;;;;;;;;;;5032054;28;20041;-72
2021/04/16 05:35:18;;;;;;;8.70;6.43;;;;;;;;;;5032118;28;20049;-73
2021/04/16 05:37:44;;;;;;;8.77;5.60;;;;;;;;;;5032730;28;20053;-72
2021/04/16 05:40:11;;;;;;;8.70;5.88;;;;;;;;;;5007241;28;20081;-72
2021/04/16 05:42:37;;;;;;;7.45;5.65;;;;;;;;;;5000120;28;20049;-72
2021/04/16 05:45:05;;;;;;;7.32;4.90;;;;;;;;;;5002147;28;20069;-73
2021/04/16 05:47:31;;;;;;;8.07;5.35;;;;;;;;;;5001067;28;20092;-74
2021/04/16 05:49:57;;;;;;;10.38;5.80;;;;;;;;;;4998573;28;20497;-74
2021/04/16 05:52:24;;;;;;;6.82;5.45;;;;;;;;;;4999124;28;20472;-73
2021/04/16 05:54:50;;;;;;;8.73;5.43;;;;;;;;;;4996356;28;20050;-74
2021/04/16 05:57:16;;;;;;;8.40;5.28;;;;;;;;;;4994282;28;20128;-74
2021/04/16 05:59:43;;;;;;;6.75;5.18;;;;;;;;;;4998037;28;20464;-73
2021/04/16 06:02:31;;;;;;;9.45;5.22;;;;;;;;;;4998278;28;20064;-74
2021/04/16 06:04:59;;;;;;;6.45;4.88;;;;;;;;;;4994811;28;20081;-74
2021/04/16 06:07:26;;;;;;;7.43;4.65;;;;;;;;;;4997273;28;20066;-74
2021/04/16 06:09:53;;;;;;;8.57;4.82;;;;;;;;;;4998278;28;20058;-74
2021/04/16 06:12:20;;;;;;;6.75;4.82;;;;;;;;;;4995530;28;20046;-74
2021/04/16 06:14:47;;;;;;;6.75;4.82;;;;;;;;;;4996338;28;20465;-74
2021/04/16 06:17:16;;;;;;;8.80;5.43;;;;;;;;;;4979745;28;20082;-74
2021/04/16 06:19:44;;;;;;;6.25;4.43;;;;;;;;;;4995332;28;20061;-74
2021/04/16 06:22:10;;;;;;;9.30;5.05;;;;;;;;;;4996904;28;20088;-74
2021/04/16 06:24:36;;;;;;;5.70;4.90;;;;;;;;;;4996155;28;20081;-74
2021/04/16 06:27:03;;;;;;;6.65;4.68;;;;;;;;;;4995558;28;20406;-74
2021/04/16 06:29:30;;;;;;;6.80;5.20;;;;;;;;;;4995707;28;20061;-74
2021/04/16 06:31:56;;;;;;;8.35;6.10;;;;;;;;;;4995963;28;20108;-74
2021/04/16 06:34:22;;;;;;;8.43;5.25;;;;;;;;;;4997672;28;20104;-74
2021/04/16 06:36:49;;;;;;;5.82;4.78;;;;;;;;;;4994889;28;20506;-74
2021/04/16 06:39:16;;;;;;;10.15;5.50;;;;;;;;;;4978516;28;20104;-74
2021/04/16 06:41:45;;;;;;;9.38;6.28;;;;;;;;;;4994614;28;20047;-74
2021/04/16 06:44:18;;;;;;;8.18;5.10;;;;;;;;;;4999152;28;20045;-72
2021/04/16 06:46:46;;;;;;;6.95;5.50;;;;;;;;;;4992902;28;20058;-75
2021/04/16 06:49:16;;;;;;;7.90;5.30;;;;;;;;;;4980177;28;20473;-72
2021/04/16 06:52:24;;;;;;;11.82;5.80;;;;;;;;;;4982765;28;20050;-73
2021/04/16 06:55:06;;;;;;;6.90;4.97;;;;;;;;;;4996184;28;20536;-72
2021/04/16 07:00:03;;;;;;;8.07;4.72;;;;;;;;;;5060328;28;20424;-69
2021/04/16 07:02:34;;;;;;;7.57;4.82;;;;;;;;;;5055454;28;20398;-74
2021/04/16 07:05:01;;;;;;;6.95;4.55;;;;;;;;;;5036339;28;20142;-76
2021/04/16 07:07:32;;;;;;;5.43;4.85;;;;;;;;;;5036754;28;20044;-76
2021/04/16 07:10:21;;;;;;;6.43;4.80;;;;;;;;;;5036084;28;20091;-75
2021/04/16 07:12:48;;;;;;;6.70;4.22;;;;;;;;;;5048824;28;20106;-76
2021/04/16 07:15:18;;;;;;;5.95;4.57;;;;;;;;;;5052690;28;20049;-75
2021/04/16 07:17:45;;;;;;;5.30;4.20;;;;;;;;;;5052255;28;20087;-76
2021/04/16 07:20:13;;;;;;;4.90;4.20;;;;;;;;;;5036044;28;20049;-76
2021/04/16 07:22:53;;;;;;;6.20;4.15;;;;;;;;;;5038012;28;20057;-76
2021/04/16 07:25:31;;;;;;;7.45;4.30;;;;;;;;;;5049830;28;20044;-75
2021/04/16 07:28:00;;;;;;;5.82;4.57;;;;;;;;;;5056967;28;20603;-76
2021/04/16 07:30:36;;;;;;;7.75;4.75;;;;;;;;;;5037850;28;20045;-76
2021/04/16 07:33:02;;;;;;;5.95;4.53;;;;;;;;;;5049771;28;20120;-75
2021/04/16 07:35:33;;;;;;;5.60;4.60;;;;;;;;;;5037711;28;20090;-76
2021/04/16 07:38:20;;;;;;;6.15;4.95;;;;;;;;;;5054941;28;20041;-75
2021/04/16 07:40:47;;;;;;;8.00;4.63;;;;;;;;;;5053404;28;20400;-75
2021/04/16 07:43:41;;;;;;;5.07;4.22;;;;;;;;;;5055798;28;20041;-75
2021/04/16 07:46:26;;;;;;;5.43;4.57;;;;;;;;;;5057433;28;20492;-75
2021/04/16 07:48:53;;;;;;;6.90;4.30;;;;;;;;;;5056529;28;20118;-75
2021/04/16 07:51:30;;;;;;;4.50;4.10;;;;;;;;;;5054843;28;20505;-73
2021/04/16 07:54:19;;;;;;;5.80;4.95;;;;;;;;;;5054888;28;20045;-73
2021/04/16 07:56:45;;;;;;;6.28;3.92;;;;;;;;;;5052835;28;20075;-73
2021/04/16 07:59:14;;;;;;;4.13;3.72;;;;;;;;;;5055451;28;20045;-73
2021/04/16 08:01:47;;;;;;;4.57;3.80;;;;;;;;;;5038851;28;20448;-73
2021/04/16 08:04:19;;;;;;;4.47;4.07;;;;;;;;;;5037064;28;20053;-73
2021/04/16 08:06:48;;;;;;;4.43;3.83;;;;;;;;;;5049117;28;20553;-71
2021/04/16 08:09:35;;;;;;;5.97;4.00;;;;;;;;;;5051984;28;20101;-70
2021/04/16 08:12:07;;;;;;;4.60;3.72;;;;;;;;;;5043926;28;20048;-73
2021/04/16 08:14:36;;;;;;;4.55;4.15;;;;;;;;;;5040006;28;20106;-73
2021/04/16 08:17:04;;;;;;;5.55;4.43;;;;;;;;;;5021481;28;20045;-70
2021/04/16 08:19:37;;;;;;;7.10;4.53;;;;;;;;;;5025716;28;20049;-70
2021/04/16 08:22:23;;;;;;;4.30;3.90;;;;;;;;;;5042660;28;20080;-71
2021/04/16 08:24:55;;;;;;;4.88;4.40;;;;;;;;;;5025905;28;20103;-71
2021/04/16 08:27:43;;;;;;;4.47;4.07;;;;;;;;;;5021965;28;20053;-73
2021/04/16 08:30:31;;;;;;;5.90;3.97;;;;;;;;;;5037837;28;20053;-71
2021/04/16 08:33:29;;;;;;;5.50;4.35;;;;;;;;;;5022270;28;20049;-71
2021/04/16 08:36:36;;;;;;;3.92;3.53;;;;;;;;;;5036058;28;20114;-74
2021/04/16 08:39:11;;;;;;;4.80;4.22;;;;;;;;;;5027284;28;20125;-74
2021/04/16 08:41:52;;;;;;;5.03;3.75;;;;;;;;;;5031108;28;20054;-70
2021/04/16 08:48:01;;;;;;;4.50;3.90;;;;;;;;;;5039139;28;20059;-73
2021/04/16 08:50:33;;;;;;;5.07;3.78;;;;;;;;;;5038743;28;20049;-72
2021/04/16 08:53:11;;;;;;;3.83;3.53;;;;;;;;;;5023430;28;20085;-72
2021/04/16 08:55:46;;;;;;;4.18;3.78;;;;;;;;;;5041797;28;20393;-73
2021/04/16 08:59:19;;;;;;;;;;;;;;;;;;;;;
2021/04/16 09:02:15;;;;;;;5.30;3.47;;;;;;;;;;5012687;28;20056;-70
2021/04/16 09:05:10;;;;;;;5.18;4.30;;;;;;;;;;5043370;28;20060;-71
2021/04/16 09:08:16;;;;;;;4.47;4.07;;;;;;;;;;5027814;28;20053;-73
2021/04/16 09:10:43;;;;;;;5.57;4.40;;;;;;;;;;5003501;28;20149;-73
2021/04/16 09:13:40;;;;;;;4.50;4.10;;;;;;;;;;5043581;28;20114;-71
2021/04/16 09:16:45;;;;;;;5.60;4.72;;;;;;;;;;5031004;28;20048;-72
2021/04/16 09:19:27;;;;;;;4.85;3.88;;;;;;;;;;5031277;28;20511;-72
2021/04/16 09:22:11;;;;;;;4.32;3.75;;;;;;;;;;5031716;28;20111;-74
2021/04/16 09:24:53;;;;;;;8.23;4.43;;;;;;;;;;5019082;28;20104;-70
2021/04/16 09:27:25;;;;;;;4.57;3.78;;;;;;;;;;5039780;28;20057;-73
2021/04/16 09:30:11;;;;;;;4.60;3.87;;;;;;;;;;5038854;28;20040;-73
2021/04/16 09:33:24;;;;;;;5.82;4.28;;;;;;;;;;5039971;28;20778;-75
2021/04/16 09:36:27;;;;;;;4.72;4.22;;;;;;;;;;5031436;23;20050;-75
2021/04/16 09:38:54;;;;;;;4.70;3.72;;;;;;;;;;5019982;28;20053;-76
2021/04/16 09:41:50;;;;;;;5.38;4.15;;;;;;;;;;5030115;28;20045;-76
2021/04/16 09:44:53;;;;;;;5.82;4.05;;;;;;;;;;5001619;28;20054;-73
2021/04/16 09:47:59;;;;;;;4.55;3.65;;;;;;;;;;5021788;28;20054;-74
2021/04/16 09:50:41;;;;;;;4.88;3.78;;;;;;;;;;5022942;28;20053;-76
2021/04/16 09:54:08;;;;;;;5.72;4.22;;;;;;;;;;5016332;28;20049;-75
2021/04/16 09:56:38;;;;;;;5.30;3.85;;;;;;;;;;5009599;28;20116;-74
2021/04/16 09:59:28;;;;;;;5.97;4.55;;;;;;;;;;5005708;28;20064;-75
2021/04/16 10:02:13;;;;;;;6.90;4.53;;;;;;;;;;5020252;28;20089;-69
2021/04/16 10:04:51;;;;;;;4.80;4.25;;;;;;;;;;5028275;28;20094;-73
2021/04/16 10:07:20;;;;;;;5.50;5.00;;;;;;;;;;5037930;28;20068;-73
2021/04/16 10:09:46;;;;;;;6.35;4.95;;;;;;;;;;5054846;28;20053;-71
2021/04/16 10:12:28;;;;;;;7.07;4.63;;;;;;;;;;5041658;28;20140;-71
2021/04/16 10:14:54;;;;;;;6.13;4.68;;;;;;;;;;5040182;28;20126;-72
2021/04/16 10:17:25;;;;;;;4.60;4.05;;;;;;;;;;5035601;28;20187;-72
2021/04/16 10:20:14;;;;;;;6.63;4.90;;;;;;;;;;5040908;28;20049;-72
2021/04/16 10:22:40;;;;;;;6.13;4.40;;;;;;;;;;5038132;28;20110;-71
2021/04/16 10:35:06;;;;;;;4.53;4.13;;;;;;;;;;5032887;28;20050;-72
2021/04/16 12:39:20;;;;;;;5.32;3.45;;;;;;;;;;5039257;28;20457;-74
2021/04/16 12:43:10;;;;;;;4.50;3.55;;;;;;;;;;5027539;28;20575;-74
2021/04/16 12:45:55;;;;;;;3.67;2.60;;;;;;;;;;5034617;28;20104;-74
2021/04/16 12:48:59;;;;;;;3.03;2.70;;;;;;;;;;5026556;28;20090;-74
2021/04/16 12:51:36;;;;;;;2.60;2.40;;;;;;;;;;5035796;28;20052;-71
2021/04/16 12:54:05;;;;;;;3.38;3.05;;;;;;;;;;5052125;28;20593;-72
2021/04/16 12:56:38;;;;;;;3.03;2.72;;;;;;;;;;5039192;28;20576;-72
2021/04/16 12:59:42;;;;;;;;;;;;;;;;;;;;;
2021/04/16 13:02:58;;;;;;;;;;;;;;;;;;;;;
2021/04/16 13:05:28;;;;;;;3.78;3.38;;;;;;;;;;5038280;28;20056;-75
2021/04/16 13:07:54;;;;;;;3.78;3.33;;;;;;;;;;5041829;28;20458;-74
2021/04/16 13:11:11;;;;;;;2.97;2.63;;;;;;;;;;5036753;28;20045;-76
2021/04/16 13:16:39;;;;;;;3.25;2.50;;;;;;;;;;5109577;22;20052;-78
2021/04/16 13:19:40;;;;;;;2.38;2.13;;;;;;;;;;5053706;28;20052;-79
2021/04/16 13:22:09;;;;;;;2.65;2.17;;;;;;;;;;5042481;28;20056;-78
2021/04/16 13:24:36;;;;;;;2.28;2.08;;;;;;;;;;5038691;28;20135;-78
2021/04/16 13:27:04;;;;;;;3.22;2.92;;;;;;;;;;5025131;28;20106;-79
2021/04/16 13:29:31;;;;;;;4.63;2.53;;;;;;;;;;5022830;28;20050;-79
2021/04/16 13:31:57;;;;;;;2.33;2.00;;;;;;;;;;5039642;28;20053;-79
2021/04/16 13:34:24;;;;;;;2.55;2.17;;;;;;;;;;5056901;28;20053;-79
2021/04/16 13:36:51;;;;;;;2.85;2.25;;;;;;;;;;5040498;28;20057;-82
2021/04/16 13:39:18;;;;;;;2.20;2.00;;;;;;;;;;5020774;28;20051;-80
2021/04/16 13:41:44;;;;;;;2.30;2.08;;;;;;;;;;5026410;28;20049;-80
2021/04/16 13:44:10;;;;;;;2.30;2.15;;;;;;;;;;5011881;28;20057;-80
2021/04/16 13:46:38;;;;;;;2.00;1.70;;;;;;;;;;5031606;28;20084;-80
2021/04/16 13:49:08;;;;;;;2.35;1.75;;;;;;;;;;5012584;28;20060;-77
2021/04/16 13:51:34;;;;;;;1.67;1.30;;;;;;;;;;5041526;28;20088;-81
2021/04/16 13:54:07;;;;;;;1.60;1.50;;;;;;;;;;5031061;28;20144;-82
2021/04/16 13:56:34;;;;;;;2.40;1.60;;;;;;;;;;5033004;28;20046;-78
2021/04/16 13:59:00;;;;;;;2.35;1.77;;;;;;;;;;5061525;28;20040;-78
2021/04/16 14:01:27;;;;;;;2.13;1.75;;;;;;;;;;5006987;28;20072;-78
2021/04/16 14:04:02;;;;;;;2.80;2.00;;;;;;;;;;5028081;28;20057;-80
2021/04/16 14:06:31;;;;;;;3.78;1.92;;;;;;;;;;5020763;28;20167;-78
2021/04/16 14:09:09;;;;;;;1.83;1.70;;;;;;;;;;5034637;28;20122;-79
2021/04/16 14:11:36;;;;;;;2.08;1.88;;;;;;;;;;5023219;28;20064;-78
2021/04/16 14:14:08;;;;;;;2.55;1.88;;;;;;;;;;5029579;28;20501;-78
2021/04/16 14:16:37;;;;;;;2.63;2.15;;;;;;;;;;5024429;28;20060;-78
2021/04/16 14:19:13;;;;;;;1.83;1.70;;;;;;;;;;5007265;28;20477;-78
2021/04/16 14:21:41;;;;;;;1.88;1.50;;;;;;;;;;5018077;28;20052;-78
2021/04/16 14:24:08;;;;;;;1.63;1.52;;;;;;;;;;5007724;28;20061;-78
2021/04/16 14:26:35;;;;;;;2.97;1.63;;;;;;;;;;5012858;28;20402;-78
2021/04/16 14:29:02;;;;;;;2.72;2.00;;;;;;;;;;5023537;28;20063;-78
2021/04/16 14:31:29;;;;;;;2.80;1.90;;;;;;;;;;5009102;28;20052;-78
2021/04/16 14:33:55;;;;;;;2.72;2.28;;;;;;;;;;5019461;28;20068;-78
2021/04/16 14:36:32;;;;;;;2.17;1.98;;;;;;;;;;5006977;28;20045;-78
2021/04/16 14:38:58;;;;;;;2.00;1.90;;;;;;;;;;5022866;28;20053;-78
2021/04/16 14:41:30;;;;;;;2.10;1.85;;;;;;;;;;5028609;28;20061;-78
2021/04/16 14:43:56;;;;;;;2.30;2.10;;;;;;;;;;5007909;28;20069;-78
2021/04/16 14:46:22;;;;;;;2.10;1.90;;;;;;;;;;5048151;28;20060;-79
2021/04/16 14:48:49;;;;;;;2.80;2.10;;;;;;;;;;5031580;28;20045;-80
2021/04/16 14:51:15;;;;;;;1.85;1.75;;;;;;;;;;5033781;28;20516;-80
2021/04/16 14:53:54;;;;;;;2.30;2.10;;;;;;;;;;5025255;28;20056;-79
2021/04/16 14:56:20;;;;;;;2.20;1.88;;;;;;;;;;5026945;28;20394;-79
2021/04/16 14:58:51;;;;;;;2.17;1.98;;;;;;;;;;5029638;28;20053;-79
2021/04/16 15:01:18;;;;;;;3.90;2.22;;;;;;;;;;5030197;28;20508;-78
2021/04/16 15:03:45;;;;;;;2.60;2.00;;;;;;;;;;5021445;28;20081;-78
2021/04/16 15:06:21;;;;;;;5.10;3.25;;;;;;;;;;5025882;28;20062;-78
2021/04/16 15:09:15;;;;;;;2.25;2.05;;;;;;;;;;5005393;28;20056;-79
2021/04/16 15:11:45;;;;;;;;;;;;;;;;;;5011677;28;20498;-78
2021/04/16 15:14:20;;;;;;;2.00;1.80;;;;;;;;;;5035355;28;20166;-82
2021/04/16 15:16:48;;;;;;;6.63;4.20;;;;;;;;;;5002979;28;20057;-84
2021/04/16 15:19:17;;;;;;;12.20;7.28;;;;;;;;;;4994711;28;20054;-87
2021/04/16 15:21:43;;;;;;;3.53;3.22;;;;;;;;;;5010044;28;20065;-83
2021/04/16 15:24:10;;;;;;;3.17;2.58;;;;;;;;;;5004864;28;20064;-81
2021/04/16 15:26:36;;;;;;;2.78;2.50;;;;;;;;;;5021031;28;20540;-83
2021/04/16 15:29:06;;;;;;;2.65;2.45;;;;;;;;;;4996354;28;20056;-77
2021/04/16 15:31:38;;;;;;;3.15;2.50;;;;;;;;;;5008117;28;20424;-80
2021/04/16 15:48:07;;;;;;;2.85;2.60;;;;;;;;;;5020082;28;20058;-79
2021/04/16 15:50:43;;;;;;;4.78;2.70;;;;;;;;;;5006943;28;20050;-78
2021/04/16 15:53:13;;;;;;;5.22;3.15;;;;;;;;;;5040809;28;20053;-78
2021/04/16 15:55:39;;;;;;;4.10;3.40;;;;;;;;;;5032037;28;20069;-77
2021/04/16 15:58:06;;;;;;;4.15;2.70;;;;;;;;;;4995052;28;20056;-77
2021/04/16 16:00:38;;;;;;;7.32;5.20;;;;;;;;;;5002168;28;20041;-79
2021/04/16 16:03:05;;;;;;;6.50;4.68;;;;;;;;;;5001420;28;20052;-79
2021/04/16 16:05:31;;;;;;;4.35;3.35;;;;;;;;;;5032394;28;20145;-79
2021/04/16 16:07:59;;;;;;;3.78;2.80;;;;;;;;;;5032359;28;20045;-79
2021/04/16 16:10:26;;;;;;;4.15;3.50;;;;;;;;;;5005792;28;20073;-79
2021/04/16 16:12:56;;;;;;;4.72;3.20;;;;;;;;;;5023612;28;20058;-79
2021/04/16 16:15:24;;;;;;;3.17;2.67;;;;;;;;;;5005121;28;20057;-79
2021/04/16 16:17:51;;;;;;;5.57;3.35;;;;;;;;;;5020393;28;20056;-79
2021/04/16 16:20:19;;;;;;;3.30;3.00;;;;;;;;;;5029406;28;20108;-79
2021/04/16 16:22:46;;;;;;;2.97;2.67;;;;;;;;;;5017007;28;20088;-78
2021/04/16 16:25:12;;;;;;;3.22;2.75;;;;;;;;;;4994898;28;20056;-77
2021/04/16 16:27:41;;;;;;;3.03;2.72;;;;;;;;;;4995707;28;20053;-77
2021/04/16 16:30:09;;;;;;;2.85;2.60;;;;;;;;;;5025235;28;20060;-77
2021/04/16 16:32:37;;;;;;;3.33;2.70;;;;;;;;;;4999039;28;20054;-76
2021/04/16 16:35:06;;;;;;;3.17;2.78;;;;;;;;;;5022179;28;20053;-77
2021/04/16 16:37:33;;;;;;;3.30;2.45;;;;;;;;;;4994179;28;20064;-77
2021/04/16 16:39:59;;;;;;;3.20;2.90;;;;;;;;;;5013072;28;20510;-77
2021/04/16 16:42:31;;;;;;;3.47;3.13;;;;;;;;;;5023772;28;20444;-77
2021/04/16 16:44:58;;;;;;;3.05;2.75;;;;;;;;;;4999233;28;20417;-77
2021/04/16 16:47:25;;;;;;;3.00;2.80;;;;;;;;;;5030191;28;20489;-77
2021/04/16 16:49:51;;;;;;;2.75;2.40;;;;;;;;;;4996010;28;20060;-77
2021/04/16 16:52:18;;;;;;;2.63;2.40;;;;;;;;;;5009474;28;20108;-77
2021/04/16 16:54:44;;;;;;;4.00;3.38;;;;;;;;;;5016949;28;20497;-78
2021/04/16 16:57:13;;;;;;;3.25;2.90;;;;;;;;;;5048372;28;20085;-77
2021/04/16 16:59:40;;;;;;;3.70;3.22;;;;;;;;;;4994569;28;20061;-77
2021/04/16 17:02:08;;;;;;;4.30;2.65;;;;;;;;;;5008628;28;20049;-78
2021/04/16 17:04:34;;;;;;;3.15;2.80;;;;;;;;;;4998823;28;20049;-77
2021/04/16 17:07:02;;;;;;;3.78;2.97;;;;;;;;;;4998537;28;20053;-78
2021/04/16 17:09:28;;;;;;;3.08;2.78;;;;;;;;;;5000629;28;20053;-79
2021/04/16 17:11:55;;;;;;;3.20;2.83;;;;;;;;;;5003020;28;20053;-79
2021/04/16 17:14:23;;;;;;;2.60;2.40;;;;;;;;;;5000637;28;20053;-79
2021/04/16 17:16:50;;;;;;;3.00;2.70;;;;;;;;;;5012575;28;20053;-78
2021/04/16 17:19:16;;;;;;;2.90;2.60;;;;;;;;;;5009819;28;20071;-78
2021/04/16 17:21:43;;;;;;;3.78;2.90;;;;;;;;;;4997499;28;20057;-77
2021/04/16 17:24:11;;;;;;;4.10;3.15;;;;;;;;;;5032597;28;20041;-79
2021/04/16 17:26:40;;;;;;;4.82;3.17;;;;;;;;;;5006598;28;20053;-78
2021/04/16 17:29:08;;;;;;;3.13;2.83;;;;;;;;;;5036467;28;20048;-77
2021/04/16 17:31:35;;;;;;;3.28;2.72;;;;;;;;;;4998015;28;20073;-79
2021/04/16 17:34:01;;;;;;;3.40;2.90;;;;;;;;;;4997885;28;20069;-76
2021/04/16 17:36:27;;;;;;;3.70;3.33;;;;;;;;;;5008981;28;20038;-76
2021/04/16 17:38:54;;;;;;;3.03;2.50;;;;;;;;;;5012504;28;20137;-79
2021/04/16 17:41:24;;;;;;;3.20;2.90;;;;;;;;;;5012181;28;20052;-76
2021/04/16 17:43:51;;;;;;;2.83;2.63;;;;;;;;;;5019918;28;20096;-76
2021/04/16 17:46:19;;;;;;;4.68;3.70;;;;;;;;;;4994786;28;20057;-76